AirNav   Air Wisconsin pilot careers
 
 882 users online  

FD43 Summer Lakes Seaplane Base
Orlando, Florida, USA

GOING TO ORLANDO?


FAA INFORMATION EFFECTIVE 12 SEPTEMBER 2019

Location

FAA Identifier: FD43
Lat/Long: 28-31-39.0000N 081-28-51.0000W
28-31.650000N 081-28.850000W
28.5275000,-81.4808333
(estimated)
Elevation: 70 ft. / 21 m (estimated)
From city: 4 miles W of ORLANDO, FL
Time zone: UTC -4 (UTC -5 during Standard Time)
Zip code: 32835

Seaplane Base Operations

Seaplane Base use: Private use. Permission required prior to landing
Activation date: 08/2017
Control tower: no
ARTCC: JACKSONVILLE CENTER
FSS: SAINT PETERSBURG FLIGHT SERVICE STATION
Attendance: 
Wind indicator: yes
Segmented circle: no

Seaplane Base Communications

WX ASOS at ORL (8 nm E): PHONE 407-658-6753
WX ASOS at MCO (11 nm SE): PHONE 407-855-5235
WX AWOS-3PT at ISM (14 nm S): 128.775 (407-847-0533)
WX ASOS at SFB (20 nm NE): PHONE 407-321-9384

Nearby radio navigation aids

VOR radial/distance  VOR name  Freq  Var
ORLr263/7.7ORLANDO VORTAC112.2000E

Seaplane Base Services

Runway Information

Runway 16W/34W

Dimensions: 2993 x 100 ft. / 912 x 30 m
Surface: water
RUNWAY 16W  RUNWAY 34W
Traffic pattern: leftleft

Seaplane Base Ownership and Management from official FAA records

Ownership: Privately-owned
Owner: DAN CONNOLLY
7520 SUMMER LAKES CT
ORLANDO, FL 32835
Phone 407-230-5682
Manager: DAN CONNOLLY
7520 SUMMER LAKES CT
ORLANDO, FL 32835
Phone 407-230-5682

Seaplane Base Operational Statistics

Aircraft based on the field: 1
Single engine airplanes: 1
    

Additional Remarks

FOR CD CTC JACKSONVILLE ARTCC AT 904-845-1592.

Instrument Procedures

There are no published instrument procedures at FD43.

Some nearby airports with instrument procedures:

KORL - Executive Airport (8 nm E)
KMCO - Orlando International Airport (11 nm SE)
X04 - Orlando Apopka Airport (12 nm NW)
KISM - Kissimmee Gateway Airport (14 nm S)
KSFB - Orlando Sanford International Airport (20 nm NE)
 
Loc | Ops | Rwys | IFR | FBO | Links
Com | Nav | Svcs | Stats | Notes
Aerial photo
No photo
 
Airport distance calculator
Flying to Summer Lakes Seaplane Base? Find the distance to fly.

From to FD43

Sunrise and sunset
Times for 15-Sep-2019
 Local
(UTC-4)
 Zulu
(UTC)
Morning civil twilight06:4810:48
Sunrise07:1211:12
Sunset19:3023:30
Evening civil twilight19:5423:54

Current date and time
Zulu (UTC)  15-Sep-2019 23:49:25
Local (UTC-4)  15-Sep-2019 19:49:25
 
METAR
KORL 
8nm E 
152253Z 36008KT 10SM CLR 29/23 A2992 RMK AO2 SLP134 T02890228
KMCO 
10nm SE 
152253Z 35008KT 10SM FEW045 SCT080 BKN250 BKN300 28/23 A2992 RMK AO2 SLP130 TCU DSNT SW NW T02780228
KISM 
15nm S 
152256Z 34008KT 10SM SCT060 BKN075 28/23 A2993 RMK AO2 RAB31E44 SLP135 P0000 T02830228
KSFB 
20nm NE 
152253Z 02010KT 10SM CLR 28/23 A2991 RMK AO2 SLP128 T02830228
TAF
KMCO 
10nm SE 
152059Z 1521/1624 36011G17KT P6SM VCSH SCT035 SCT060 BKN250 TEMPO 1521/1522 36015G25KT 5SM SHRA SCT025 BKN035 BKN060 FM160000 35009KT P6SM SCT030 BKN080 FM160600 31007KT P6SM SCT020 BKN250 FM161400 34010KT P6SM SCT020 BKN040 FM162100 36013KT P6SM SCT030 BKN050
KISM 
15nm S 
152028Z 1520/1618 04011G17KT P6SM VCSH SCT035 BKN060 FM160000 33005KT P6SM SCT030 BKN250 FM161300 34008KT P6SM SCT030 BKN060
KSFB 
20nm NE 
151738Z 1518/1618 03013G19KT P6SM VCSH SCT035 BKN060 TEMPO 1518/1520 3SM SHRA BKN020 FM160000 35008KT P6SM SCT040 BKN080 FM161300 34010KT P6SM SCT030 BKN060
NOTAMs
Click for the latest NOTAMs
NOTAMs are issued by the DoD/FAA and will open in a separate window not controlled by AirNav.

 

 
 

Would you like to see your business listed on this page?

 If your business provides an interesting product or service to pilots, flight crews, aircraft, or users of the Summer Lakes Seaplane Base, you should consider listing it here.  To start the listing process, click on the button below
 
Add a business
 

Other Pages about Summer Lakes Seaplane Base

Update a link
 
Copyright © AirNav, LLC. All rights reserved. Privacy Policy  Contact